Padre Island National Seasho, Texas
Current Conditions -  °F | °C
As of 6:56 PM on Friday 19 Dec 2014 (Local Time) from KNGP Reporting Station
Overcast Overcast  
Wind Chill: 61°   Ceiling: 2300
Heat Index: 61°   Visibility: 10mi
Dew Point: 56°   Wind: 20mph
Humidity: 83%   Direction: 10°N
Pressure: 30.05"   Gusts: NA
Location:  27.6599°N, 97.2972°W
Report Text: KNGP 200056Z 01017KT 10SM FEW015 BKN023 OVC028 16/13 A3005 RMK AO2 SLP175 T01610133
Loading
Personal Weather Stations






























Interactive Weather Map New forecast layout! Learn more

10-Day Weather Forecast

Advertisements
Track Severe Weather on mobile